sensor_id;sensor_type;location;lat;lon;timestamp;P1;durP1;ratioP1;P2;durP2;ratioP2
12770;SDS011;6449;47.666;9.160;2023-04-29T00:03:22;7.07;;;6.37;;
12770;SDS011;6449;47.666;9.160;2023-04-29T00:08:21;7.45;;;6.57;;
12770;SDS011;6449;47.666;9.160;2023-04-29T00:13:14;9.23;;;7.43;;
12770;SDS011;6449;47.666;9.160;2023-04-29T00:18:08;7.93;;;7.13;;
12770;SDS011;6449;47.666;9.160;2023-04-29T00:23:01;8.33;;;7.53;;
12770;SDS011;6449;47.666;9.160;2023-04-29T00:27:56;7.67;;;6.97;;
12770;SDS011;6449;47.666;9.160;2023-04-29T00:32:52;7.57;;;6.87;;
12770;SDS011;6449;47.666;9.160;2023-04-29T00:37:46;8.20;;;7.37;;
12770;SDS011;6449;47.666;9.160;2023-04-29T00:42:41;11.30;;;8.43;;
12770;SDS011;6449;47.666;9.160;2023-04-29T00:47:36;8.50;;;7.70;;
12770;SDS011;6449;47.666;9.160;2023-04-29T00:52:30;8.20;;;7.40;;
12770;SDS011;6449;47.666;9.160;2023-04-29T00:57:24;8.67;;;7.37;;
12770;SDS011;6449;47.666;9.160;2023-04-29T01:17:42;9.87;;;8.93;;
12770;SDS011;6449;47.666;9.160;2023-04-29T01:22:47;10.07;;;9.10;;
12770;SDS011;6449;47.666;9.160;2023-04-29T01:27:45;10.50;;;9.40;;
12770;SDS011;6449;47.666;9.160;2023-04-29T01:32:50;9.70;;;8.80;;
12770;SDS011;6449;47.666;9.160;2023-04-29T02:18:43;11.07;;;9.57;;
12770;SDS011;6449;47.666;9.160;2023-04-29T02:23:37;11.73;;;10.00;;
12770;SDS011;6449;47.666;9.160;2023-04-29T02:28:30;11.20;;;10.10;;
12770;SDS011;6449;47.666;9.160;2023-04-29T02:33:25;11.33;;;9.70;;
12770;SDS011;6449;47.666;9.160;2023-04-29T02:38:19;11.27;;;10.07;;
12770;SDS011;6449;47.666;9.160;2023-04-29T02:43:13;11.13;;;10.03;;
12770;SDS011;6449;47.666;9.160;2023-04-29T02:48:06;10.77;;;9.73;;
12770;SDS011;6449;47.666;9.160;2023-04-29T02:52:59;10.60;;;9.50;;
12770;SDS011;6449;47.666;9.160;2023-04-29T03:03:01;12.47;;;10.13;;
12770;SDS011;6449;47.666;9.160;2023-04-29T03:18:35;10.50;;;8.97;;
12770;SDS011;6449;47.666;9.160;2023-04-29T03:23:28;11.67;;;9.63;;
12770;SDS011;6449;47.666;9.160;2023-04-29T03:28:22;12.73;;;10.70;;
12770;SDS011;6449;47.666;9.160;2023-04-29T03:33:15;9.60;;;8.70;;
12770;SDS011;6449;47.666;9.160;2023-04-29T03:38:10;9.87;;;8.87;;
12770;SDS011;6449;47.666;9.160;2023-04-29T03:43:03;11.73;;;9.83;;
12770;SDS011;6449;47.666;9.160;2023-04-29T03:47:58;10.03;;;9.00;;
12770;SDS011;6449;47.666;9.160;2023-04-29T03:52:53;9.67;;;8.77;;
12770;SDS011;6449;47.666;9.160;2023-04-29T03:57:47;9.67;;;8.70;;
12770;SDS011;6449;47.666;9.160;2023-04-29T04:02:40;12.23;;;8.57;;
12770;SDS011;6449;47.666;9.160;2023-04-29T04:07:35;8.63;;;7.83;;
12770;SDS011;6449;47.666;9.160;2023-04-29T04:12:28;10.10;;;7.97;;
12770;SDS011;6449;47.666;9.160;2023-04-29T04:17:23;9.33;;;7.10;;
12770;SDS011;6449;47.666;9.160;2023-04-29T04:22:16;10.03;;;7.30;;
12770;SDS011;6449;47.666;9.160;2023-04-29T04:27:10;7.90;;;7.10;;
12770;SDS011;6449;47.666;9.160;2023-04-29T04:32:04;8.20;;;7.40;;
12770;SDS011;6449;47.666;9.160;2023-04-29T04:36:59;8.87;;;8.07;;
12770;SDS011;6449;47.666;9.160;2023-04-29T04:41:52;7.50;;;6.70;;
12770;SDS011;6449;47.666;9.160;2023-04-29T04:46:46;7.90;;;7.20;;
12770;SDS011;6449;47.666;9.160;2023-04-29T04:51:43;11.90;;;7.43;;
12770;SDS011;6449;47.666;9.160;2023-04-29T04:56:38;8.80;;;8.00;;
12770;SDS011;6449;47.666;9.160;2023-04-29T05:01:32;7.63;;;6.97;;
12770;SDS011;6449;47.666;9.160;2023-04-29T05:06:25;8.93;;;7.63;;
12770;SDS011;6449;47.666;9.160;2023-04-29T05:11:19;9.30;;;8.40;;
12770;SDS011;6449;47.666;9.160;2023-04-29T05:16:15;14.03;;;11.90;;
12770;SDS011;6449;47.666;9.160;2023-04-29T05:21:08;13.40;;;12.07;;
12770;SDS011;6449;47.666;9.160;2023-04-29T05:26:02;14.47;;;12.20;;
12770;SDS011;6449;47.666;9.160;2023-04-29T05:30:55;13.53;;;12.10;;
12770;SDS011;6449;47.666;9.160;2023-04-29T05:35:50;11.83;;;10.63;;
12770;SDS011;6449;47.666;9.160;2023-04-29T05:40:46;11.50;;;10.43;;
12770;SDS011;6449;47.666;9.160;2023-04-29T05:45:41;14.60;;;12.57;;
12770;SDS011;6449;47.666;9.160;2023-04-29T05:50:38;14.63;;;12.13;;
12770;SDS011;6449;47.666;9.160;2023-04-29T05:55:33;12.40;;;11.10;;
12770;SDS011;6449;47.666;9.160;2023-04-29T06:00:26;11.40;;;10.30;;
12770;SDS011;6449;47.666;9.160;2023-04-29T06:05:20;10.50;;;9.40;;
12770;SDS011;6449;47.666;9.160;2023-04-29T06:10:13;10.30;;;9.30;;
12770;SDS011;6449;47.666;9.160;2023-04-29T06:15:09;10.10;;;9.20;;
12770;SDS011;6449;47.666;9.160;2023-04-29T06:20:03;10.60;;;9.60;;
12770;SDS011;6449;47.666;9.160;2023-04-29T06:24:57;10.20;;;9.13;;
12770;SDS011;6449;47.666;9.160;2023-04-29T06:29:50;9.53;;;8.70;;
12770;SDS011;6449;47.666;9.160;2023-04-29T06:34:46;9.00;;;8.20;;
12770;SDS011;6449;47.666;9.160;2023-04-29T06:39:40;9.20;;;8.30;;
12770;SDS011;6449;47.666;9.160;2023-04-29T06:44:33;10.27;;;9.37;;
12770;SDS011;6449;47.666;9.160;2023-04-29T06:49:27;10.67;;;9.67;;
12770;SDS011;6449;47.666;9.160;2023-04-29T06:54:22;10.30;;;9.40;;
12770;SDS011;6449;47.666;9.160;2023-04-29T06:59:15;9.53;;;8.63;;
12770;SDS011;6449;47.666;9.160;2023-04-29T07:04:08;11.00;;;9.93;;
12770;SDS011;6449;47.666;9.160;2023-04-29T07:09:02;9.30;;;8.50;;
12770;SDS011;6449;47.666;9.160;2023-04-29T07:13:57;10.97;;;9.97;;
12770;SDS011;6449;47.666;9.160;2023-04-29T07:18:50;10.00;;;8.83;;
12770;SDS011;6449;47.666;9.160;2023-04-29T07:23:44;10.20;;;9.17;;
12770;SDS011;6449;47.666;9.160;2023-04-29T07:28:38;9.98;;;9.07;;
12770;SDS011;6449;47.666;9.160;2023-04-29T07:33:34;7.35;;;6.65;;
12770;SDS011;6449;47.666;9.160;2023-04-29T07:38:27;7.90;;;7.15;;
12770;SDS011;6449;47.666;9.160;2023-04-29T07:43:21;7.90;;;7.20;;
12770;SDS011;6449;47.666;9.160;2023-04-29T07:48:15;8.68;;;6.47;;
12770;SDS011;6449;47.666;9.160;2023-04-29T07:53:09;5.80;;;5.30;;
12770;SDS011;6449;47.666;9.160;2023-04-29T07:58:03;6.03;;;5.35;;
12770;SDS011;6449;47.666;9.160;2023-04-29T08:02:58;6.93;;;6.28;;
12770;SDS011;6449;47.666;9.160;2023-04-29T08:07:51;6.57;;;5.60;;
12770;SDS011;6449;47.666;9.160;2023-04-29T08:12:46;7.10;;;6.13;;
12770;SDS011;6449;47.666;9.160;2023-04-29T08:17:40;6.18;;;5.68;;
12770;SDS011;6449;47.666;9.160;2023-04-29T08:22:34;6.22;;;5.72;;
12770;SDS011;6449;47.666;9.160;2023-04-29T08:27:27;7.32;;;6.65;;
12770;SDS011;6449;47.666;9.160;2023-04-29T08:32:22;6.43;;;5.82;;
12770;SDS011;6449;47.666;9.160;2023-04-29T08:37:15;6.20;;;5.68;;
12770;SDS011;6449;47.666;9.160;2023-04-29T08:42:09;5.38;;;4.88;;
12770;SDS011;6449;47.666;9.160;2023-04-29T08:47:02;5.70;;;5.20;;
12770;SDS011;6449;47.666;9.160;2023-04-29T08:51:58;4.85;;;3.80;;
12770;SDS011;6449;47.666;9.160;2023-04-29T08:56:53;2.97;;;2.78;;
12770;SDS011;6449;47.666;9.160;2023-04-29T09:01:49;3.55;;;3.08;;
12770;SDS011;6449;47.666;9.160;2023-04-29T09:06:45;2.28;;;1.85;;
12770;SDS011;6449;47.666;9.160;2023-04-29T09:11:41;3.42;;;1.80;;
12770;SDS011;6449;47.666;9.160;2023-04-29T09:16:34;2.92;;;2.28;;
12770;SDS011;6449;47.666;9.160;2023-04-29T09:21:29;2.13;;;1.58;;
12770;SDS011;6449;47.666;9.160;2023-04-29T09:26:23;3.90;;;1.50;;
12770;SDS011;6449;47.666;9.160;2023-04-29T09:31:27;1.48;;;1.38;;
12770;SDS011;6449;47.666;9.160;2023-04-29T09:36:36;1.88;;;1.23;;
12770;SDS011;6449;47.666;9.160;2023-04-29T09:41:37;1.60;;;1.50;;
12770;SDS011;6449;47.666;9.160;2023-04-29T09:46:33;1.50;;;1.30;;
12770;SDS011;6449;47.666;9.160;2023-04-29T09:51:28;1.73;;;1.10;;
12770;SDS011;6449;47.666;9.160;2023-04-29T09:56:23;2.20;;;0.98;;
12770;SDS011;6449;47.666;9.160;2023-04-29T10:01:19;1.40;;;1.30;;
12770;SDS011;6449;47.666;9.160;2023-04-29T10:06:16;1.17;;;1.10;;
12770;SDS011;6449;47.666;9.160;2023-04-29T10:11:10;0.90;;;0.90;;
12770;SDS011;6449;47.666;9.160;2023-04-29T10:16:08;1.50;;;1.10;;
12770;SDS011;6449;47.666;9.160;2023-04-29T10:21:12;2.65;;;1.10;;
12770;SDS011;6449;47.666;9.160;2023-04-29T10:26:07;1.08;;;0.98;;
12770;SDS011;6449;47.666;9.160;2023-04-29T10:31:06;1.15;;;1.05;;
12770;SDS011;6449;47.666;9.160;2023-04-29T10:36:02;1.90;;;1.38;;
12770;SDS011;6449;47.666;9.160;2023-04-29T10:40:57;1.48;;;0.95;;
12770;SDS011;6449;47.666;9.160;2023-04-29T10:51:11;2.00;;;0.88;;
12770;SDS011;6449;47.666;9.160;2023-04-29T10:56:22;1.05;;;0.50;;
12770;SDS011;6449;47.666;9.160;2023-04-29T11:01:43;1.40;;;0.88;;
12770;SDS011;6449;47.666;9.160;2023-04-29T11:06:45;1.58;;;0.70;;
12770;SDS011;6449;47.666;9.160;2023-04-29T11:11:45;2.10;;;0.85;;
12770;SDS011;6449;47.666;9.160;2023-04-29T11:16:55;1.15;;;0.80;;
12770;SDS011;6449;47.666;9.160;2023-04-29T11:21:53;0.75;;;0.63;;
12770;SDS011;6449;47.666;9.160;2023-04-29T11:27:16;0.77;;;0.77;;
12770;SDS011;6449;47.666;9.160;2023-04-29T11:32:15;1.05;;;0.70;;
12770;SDS011;6449;47.666;9.160;2023-04-29T11:37:17;0.60;;;0.60;;
12770;SDS011;6449;47.666;9.160;2023-04-29T11:42:18;0.52;;;0.47;;
12770;SDS011;6449;47.666;9.160;2023-04-29T11:52:19;2.00;;;0.75;;
12770;SDS011;6449;47.666;9.160;2023-04-29T11:57:12;1.17;;;0.68;;
12770;SDS011;6449;47.666;9.160;2023-04-29T12:02:07;1.65;;;0.77;;
12770;SDS011;6449;47.666;9.160;2023-04-29T12:07:04;1.15;;;0.93;;
12770;SDS011;6449;47.666;9.160;2023-04-29T12:12:03;0.75;;;0.70;;
12770;SDS011;6449;47.666;9.160;2023-04-29T12:16:58;1.80;;;0.80;;
12770;SDS011;6449;47.666;9.160;2023-04-29T12:27:00;0.63;;;0.63;;
12770;SDS011;6449;47.666;9.160;2023-04-29T12:31:59;0.75;;;0.60;;
12770;SDS011;6449;47.666;9.160;2023-04-29T12:41:59;1.88;;;0.65;;
12770;SDS011;6449;47.666;9.160;2023-04-29T12:46:55;1.13;;;0.82;;
12770;SDS011;6449;47.666;9.160;2023-04-29T12:52:01;1.35;;;0.80;;
12770;SDS011;6449;47.666;9.160;2023-04-29T12:56:54;3.13;;;0.80;;
12770;SDS011;6449;47.666;9.160;2023-04-29T13:01:47;0.70;;;0.70;;
12770;SDS011;6449;47.666;9.160;2023-04-29T13:11:49;0.82;;;0.82;;
12770;SDS011;6449;47.666;9.160;2023-04-29T13:16:44;3.22;;;1.30;;
12770;SDS011;6449;47.666;9.160;2023-04-29T13:21:37;5.80;;;1.38;;
12770;SDS011;6449;47.666;9.160;2023-04-29T13:26:31;1.35;;;1.00;;
12770;SDS011;6449;47.666;9.160;2023-04-29T13:31:25;3.60;;;1.25;;
12770;SDS011;6449;47.666;9.160;2023-04-29T13:36:19;2.35;;;1.35;;
12770;SDS011;6449;47.666;9.160;2023-04-29T13:41:12;1.38;;;1.13;;
12770;SDS011;6449;47.666;9.160;2023-04-29T13:46:07;3.38;;;1.40;;
12770;SDS011;6449;47.666;9.160;2023-04-29T13:51:03;3.33;;;1.20;;
12770;SDS011;6449;47.666;9.160;2023-04-29T13:56:00;0.90;;;0.90;;
12770;SDS011;6449;47.666;9.160;2023-04-29T14:00:56;1.83;;;1.08;;
12770;SDS011;6449;47.666;9.160;2023-04-29T14:05:53;1.35;;;1.17;;
12770;SDS011;6449;47.666;9.160;2023-04-29T14:10:47;3.08;;;1.20;;
12770;SDS011;6449;47.666;9.160;2023-04-29T14:15:41;2.75;;;1.13;;
12770;SDS011;6449;47.666;9.160;2023-04-29T14:20:34;1.52;;;1.00;;
12770;SDS011;6449;47.666;9.160;2023-04-29T14:25:28;1.00;;;0.95;;
12770;SDS011;6449;47.666;9.160;2023-04-29T14:30:25;3.65;;;2.20;;
12770;SDS011;6449;47.666;9.160;2023-04-29T14:35:18;3.45;;;1.48;;
12770;SDS011;6449;47.666;9.160;2023-04-29T14:40:12;2.90;;;0.90;;
12770;SDS011;6449;47.666;9.160;2023-04-29T14:45:05;2.05;;;1.00;;
12770;SDS011;6449;47.666;9.160;2023-04-29T14:50:01;2.78;;;1.15;;
12770;SDS011;6449;47.666;9.160;2023-04-29T14:54:55;1.02;;;0.93;;
12770;SDS011;6449;47.666;9.160;2023-04-29T14:59:48;0.95;;;0.90;;
12770;SDS011;6449;47.666;9.160;2023-04-29T15:04:42;2.65;;;1.08;;
12770;SDS011;6449;47.666;9.160;2023-04-29T15:09:38;1.73;;;0.85;;
12770;SDS011;6449;47.666;9.160;2023-04-29T15:14:31;0.95;;;0.90;;
12770;SDS011;6449;47.666;9.160;2023-04-29T15:19:25;1.60;;;0.98;;
12770;SDS011;6449;47.666;9.160;2023-04-29T15:24:18;0.98;;;0.90;;
12770;SDS011;6449;47.666;9.160;2023-04-29T15:29:13;0.85;;;0.85;;
12770;SDS011;6449;47.666;9.160;2023-04-29T15:34:06;2.58;;;1.30;;
12770;SDS011;6449;47.666;9.160;2023-04-29T15:38:59;1.20;;;1.10;;
12770;SDS011;6449;47.666;9.160;2023-04-29T15:43:53;0.98;;;0.88;;
12770;SDS011;6449;47.666;9.160;2023-04-29T15:48:50;1.23;;;0.90;;
12770;SDS011;6449;47.666;9.160;2023-04-29T15:53:43;1.50;;;0.80;;
12770;SDS011;6449;47.666;9.160;2023-04-29T15:58:38;2.20;;;1.60;;
12770;SDS011;6449;47.666;9.160;2023-04-29T16:03:31;2.72;;;1.20;;
12770;SDS011;6449;47.666;9.160;2023-04-29T16:08:26;1.52;;;1.42;;
12770;SDS011;6449;47.666;9.160;2023-04-29T16:13:20;1.40;;;1.35;;
12770;SDS011;6449;47.666;9.160;2023-04-29T16:18:13;2.17;;;1.70;;
12770;SDS011;6449;47.666;9.160;2023-04-29T16:23:07;1.65;;;1.55;;
12770;SDS011;6449;47.666;9.160;2023-04-29T16:28:02;3.38;;;2.53;;
12770;SDS011;6449;47.666;9.160;2023-04-29T16:32:55;4.10;;;3.13;;
12770;SDS011;6449;47.666;9.160;2023-04-29T16:37:49;4.63;;;2.95;;
12770;SDS011;6449;47.666;9.160;2023-04-29T16:42:43;5.70;;;2.67;;
12770;SDS011;6449;47.666;9.160;2023-04-29T16:47:38;2.53;;;1.70;;
12770;SDS011;6449;47.666;9.160;2023-04-29T16:52:32;2.22;;;2.08;;
12770;SDS011;6449;47.666;9.160;2023-04-29T16:57:25;4.10;;;2.72;;
12770;SDS011;6449;47.666;9.160;2023-04-29T17:02:19;1.98;;;1.70;;
12770;SDS011;6449;47.666;9.160;2023-04-29T17:07:14;1.52;;;1.42;;
12770;SDS011;6449;47.666;9.160;2023-04-29T17:12:09;1.58;;;1.40;;
12770;SDS011;6449;47.666;9.160;2023-04-29T17:17:03;4.35;;;1.42;;
12770;SDS011;6449;47.666;9.160;2023-04-29T17:21:56;2.60;;;1.58;;
12770;SDS011;6449;47.666;9.160;2023-04-29T17:26:51;3.45;;;1.83;;
12770;SDS011;6449;47.666;9.160;2023-04-29T17:31:44;2.05;;;1.70;;
12770;SDS011;6449;47.666;9.160;2023-04-29T17:36:44;3.25;;;1.80;;
12770;SDS011;6449;47.666;9.160;2023-04-29T17:41:38;2.17;;;1.50;;
12770;SDS011;6449;47.666;9.160;2023-04-29T17:46:33;1.73;;;1.38;;
12770;SDS011;6449;47.666;9.160;2023-04-29T17:51:27;1.95;;;1.50;;
12770;SDS011;6449;47.666;9.160;2023-04-29T17:56:23;2.65;;;1.58;;
12770;SDS011;6449;47.666;9.160;2023-04-29T18:01:20;2.60;;;1.95;;
12770;SDS011;6449;47.666;9.160;2023-04-29T18:06:14;1.70;;;1.60;;
12770;SDS011;6449;47.666;9.160;2023-04-29T18:11:08;1.65;;;1.55;;
12770;SDS011;6449;47.666;9.160;2023-04-29T18:16:05;1.73;;;1.63;;
12770;SDS011;6449;47.666;9.160;2023-04-29T18:20:59;3.38;;;1.90;;
12770;SDS011;6449;47.666;9.160;2023-04-29T18:31:02;2.80;;;2.35;;
12770;SDS011;6449;47.666;9.160;2023-04-29T18:51:18;3.28;;;3.08;;
12770;SDS011;6449;47.666;9.160;2023-04-29T19:21:51;3.88;;;3.58;;
12770;SDS011;6449;47.666;9.160;2023-04-29T19:26:45;4.10;;;3.70;;
12770;SDS011;6449;47.666;9.160;2023-04-29T19:31:41;6.97;;;4.55;;
12770;SDS011;6449;47.666;9.160;2023-04-29T19:36:36;4.90;;;4.50;;
12770;SDS011;6449;47.666;9.160;2023-04-29T19:41:31;5.60;;;5.10;;
12770;SDS011;6449;47.666;9.160;2023-04-29T19:46:25;7.00;;;6.30;;
12770;SDS011;6449;47.666;9.160;2023-04-29T19:51:19;5.50;;;4.87;;
12770;SDS011;6449;47.666;9.160;2023-04-29T19:56:12;7.10;;;5.30;;
12770;SDS011;6449;47.666;9.160;2023-04-29T20:42:03;6.57;;;4.33;;
12770;SDS011;6449;47.666;9.160;2023-04-29T20:46:57;6.13;;;4.40;;
12770;SDS011;6449;47.666;9.160;2023-04-29T20:51:50;4.53;;;4.10;;
12770;SDS011;6449;47.666;9.160;2023-04-29T20:56:43;5.47;;;3.83;;
12770;SDS011;6449;47.666;9.160;2023-04-29T21:01:38;6.80;;;4.50;;
12770;SDS011;6449;47.666;9.160;2023-04-29T21:06:32;7.30;;;4.20;;
12770;SDS011;6449;47.666;9.160;2023-04-29T21:11:26;10.52;;;4.47;;
12770;SDS011;6449;47.666;9.160;2023-04-29T21:16:21;6.33;;;4.43;;
12770;SDS011;6449;47.666;9.160;2023-04-29T21:41:44;5.87;;;5.10;;
12770;SDS011;6449;47.666;9.160;2023-04-29T21:46:38;6.27;;;5.23;;
12770;SDS011;6449;47.666;9.160;2023-04-29T21:51:32;6.75;;;5.22;;
12770;SDS011;6449;47.666;9.160;2023-04-29T21:56:26;5.93;;;5.38;;
12770;SDS011;6449;47.666;9.160;2023-04-29T22:01:21;6.17;;;5.50;;
12770;SDS011;6449;47.666;9.160;2023-04-29T22:06:29;7.45;;;5.90;;
12770;SDS011;6449;47.666;9.160;2023-04-29T22:11:23;6.90;;;6.10;;
12770;SDS011;6449;47.666;9.160;2023-04-29T22:16:17;26.02;;;23.40;;
12770;SDS011;6449;47.666;9.160;2023-04-29T22:21:11;6.30;;;5.70;;
12770;SDS011;6449;47.666;9.160;2023-04-29T22:26:05;7.20;;;5.70;;
12770;SDS011;6449;47.666;9.160;2023-04-29T22:30:58;6.15;;;5.55;;
12770;SDS011;6449;47.666;9.160;2023-04-29T22:35:51;6.67;;;5.70;;
12770;SDS011;6449;47.666;9.160;2023-04-29T22:40:49;5.37;;;4.87;;
12770;SDS011;6449;47.666;9.160;2023-04-29T22:45:49;6.22;;;5.63;;
12770;SDS011;6449;47.666;9.160;2023-04-29T22:50:48;5.90;;;5.25;;
12770;SDS011;6449;47.666;9.160;2023-04-29T22:55:48;7.63;;;5.80;;
12770;SDS011;6449;47.666;9.160;2023-04-29T23:00:43;7.30;;;5.67;;
12770;SDS011;6449;47.666;9.160;2023-04-29T23:05:36;6.33;;;5.73;;
12770;SDS011;6449;47.666;9.160;2023-04-29T23:10:30;9.33;;;5.70;;
12770;SDS011;6449;47.666;9.160;2023-04-29T23:15:26;6.73;;;6.10;;
12770;SDS011;6449;47.666;9.160;2023-04-29T23:40:49;6.33;;;5.37;;
12770;SDS011;6449;47.666;9.160;2023-04-29T23:45:43;6.77;;;5.30;;
12770;SDS011;6449;47.666;9.160;2023-04-29T23:50:37;6.10;;;5.50;;
12770;SDS011;6449;47.666;9.160;2023-04-29T23:55:31;9.23;;;5.13;;
